Time;durP1;ratioP1;P1;durP2;ratioP2;P2;SDS_P1;SDS_P2;PMS_P1;PMS_P2;Temp;Humidity;BMP_temperature;BMP_pressure;BME280_temperature;BME280_humidity;BME280_pressure;Samples;Min_cycle;Max_cycle;Signal;HPM_P1;HPM_P2
2022/01/23 00:00:03;;;;;;;41.33;20.77;;;6.70;99.90;;;;;;5064527;28;20465;-83
2022/01/23 00:02:30;;;;;;;43.27;22.10;;;6.70;99.90;;;;;;5077185;28;20397;-82
2022/01/23 00:04:55;;;;;;;39.00;21.83;;;6.70;99.90;;;;;;5050413;28;20418;-83
2022/01/23 00:07:22;;;;;;;37.97;20.90;;;6.70;99.90;;;;;;5042151;28;20432;-81
2022/01/23 00:09:47;;;;;;;39.40;21.20;;;6.80;99.90;;;;;;5058565;28;20202;-82
2022/01/23 00:12:20;;;;;;;42.57;22.70;;;6.70;99.90;;;;;;5056316;28;20784;-82
2022/01/23 00:17:35;;;;;;;43.27;23.47;;;6.70;99.90;;;;;;5056843;28;20459;-80
2022/01/23 00:20:05;;;;;;;36.47;21.10;;;6.60;99.90;;;;;;5071243;28;20473;-81
2022/01/23 00:22:42;;;;;;;45.60;23.67;;;6.60;99.90;;;;;;5077032;28;20414;-80
2022/01/23 00:30:40;;;;;;;49.70;23.47;;;6.70;99.90;;;;;;5076303;28;20443;-80
2022/01/23 00:33:06;;;;;;;38.77;23.57;;;6.70;99.90;;;;;;5041175;28;20460;-82
2022/01/23 00:35:33;;;;;;;47.30;24.03;;;6.70;99.90;;;;;;5072825;28;20450;-83
2022/01/23 00:38:00;;;;;;;38.60;22.90;;;6.60;99.90;;;;;;5054094;28;20409;-80
2022/01/23 00:40:28;;;;;;;42.63;23.70;;;6.70;99.90;;;;;;5059661;28;20484;-83
2022/01/23 00:42:54;;;;;;;45.93;24.37;;;6.70;99.90;;;;;;5072211;28;20434;-82
2022/01/23 00:45:32;;;;;;;47.30;24.40;;;6.60;99.90;;;;;;5070494;28;20413;-82
2022/01/23 00:48:03;;;;;;;43.80;23.03;;;6.60;99.90;;;;;;5096774;22;20651;-81
2022/01/23 00:50:32;;;;;;;38.43;22.30;;;6.70;99.90;;;;;;5053961;28;20505;-81
2022/01/23 00:52:58;;;;;;;44.60;25.97;;;6.70;99.90;;;;;;5053025;28;20440;-81
2022/01/23 00:55:24;;;;;;;43.03;23.50;;;6.80;99.90;;;;;;5035167;28;20418;-81
2022/01/23 00:57:49;;;;;;;43.47;22.97;;;6.80;99.90;;;;;;5028171;28;20981;-81
2022/01/23 01:00:16;;;;;;;49.00;25.87;;;6.80;99.90;;;;;;5023663;28;20246;-80
2022/01/23 01:02:41;;;;;;;40.27;21.80;;;6.80;99.90;;;;;;5026082;28;20172;-80
2022/01/23 01:05:08;;;;;;;47.30;25.77;;;6.80;99.90;;;;;;5044544;28;20840;-81
2022/01/23 01:07:34;;;;;;;44.00;23.43;;;6.70;99.90;;;;;;5051243;28;20192;-80
2022/01/23 01:10:06;;;;;;;44.37;22.10;;;6.80;99.90;;;;;;5044647;28;20418;-80
2022/01/23 01:12:40;;;;;;;44.00;22.03;;;6.70;99.90;;;;;;4997627;28;20256;-81
2022/01/23 01:34:01;;;;;;;44.13;24.70;;;6.40;99.90;;;;;;5047399;28;20505;-81
2022/01/23 01:36:35;;;;;;;47.27;25.30;;;6.40;99.90;;;;;;5012478;28;20490;-80
2022/01/23 01:39:01;;;;;;;44.37;23.17;;;6.30;99.90;;;;;;5037318;28;20460;-80
2022/01/23 01:41:27;;;;;;;49.87;26.37;;;6.20;99.90;;;;;;5034389;28;20478;-80
2022/01/23 01:43:54;;;;;;;44.97;22.37;;;6.20;99.90;;;;;;5044003;28;20184;-80
2022/01/23 01:46:20;;;;;;;50.10;23.80;;;6.30;99.90;;;;;;5047564;28;20258;-80
2022/01/23 01:48:46;;;;;;;45.33;24.30;;;6.30;99.90;;;;;;5023718;28;20446;-80
2022/01/23 01:51:15;;;;;;;50.97;24.63;;;6.30;99.90;;;;;;5049016;28;20827;-80
2022/01/23 01:53:47;;;;;;;52.43;24.73;;;6.40;99.90;;;;;;5042005;28;20226;-81
2022/01/23 01:56:13;;;;;;;44.90;25.23;;;6.30;99.90;;;;;;5046028;28;20471;-81
2022/01/23 02:09:33;;;;;;;44.57;23.87;;;6.60;99.90;;;;;;5046640;28;20429;-80
2022/01/23 02:15:28;;;;;;;39.23;23.40;;;6.80;99.90;;;;;;5034645;28;20441;-80
2022/01/23 02:55:41;;;;;;;44.20;23.57;;;7.00;99.90;;;;;;5043878;28;20413;-81
2022/01/23 02:58:10;;;;;;;42.57;22.07;;;7.00;99.90;;;;;;5035392;28;20541;-80
2022/01/23 03:00:47;;;;;;;45.43;23.83;;;7.00;99.90;;;;;;5032177;28;20466;-80
2022/01/23 03:03:21;;;;;;;44.50;22.73;;;7.00;99.90;;;;;;5036989;28;20461;-80
2022/01/23 03:05:58;;;;;;;41.23;21.60;;;7.00;99.90;;;;;;5048743;28;20434;-80
2022/01/23 03:08:32;;;;;;;44.53;23.20;;;7.00;99.90;;;;;;5029474;28;20528;-80
2022/01/23 03:11:05;;;;;;;43.40;23.43;;;7.00;99.90;;;;;;5048831;28;20433;-80
2022/01/23 03:13:56;;;;;;;44.43;22.20;;;7.00;99.90;;;;;;5029091;28;20435;-81
2022/01/23 03:30:16;;;;;;;46.53;21.70;;;6.80;99.90;;;;;;5055554;28;20503;-82
2022/01/23 03:32:46;;;;;;;39.57;22.40;;;6.80;99.90;;;;;;5047303;28;20441;-81
2022/01/23 03:35:14;;;;;;;47.80;23.47;;;6.90;99.90;;;;;;5030491;28;20469;-81
2022/01/23 03:37:39;;;;;;;37.07;21.63;;;6.90;99.90;;;;;;5029848;28;20499;-82
2022/01/23 03:40:05;;;;;;;46.77;24.83;;;6.80;99.90;;;;;;5052028;28;20474;-82
2022/01/23 03:42:34;;;;;;;42.47;22.23;;;6.80;99.90;;;;;;5028981;28;20180;-82
2022/01/23 03:48:02;;;;;;;46.53;23.03;;;6.80;99.90;;;;;;5052275;28;20524;-80
2022/01/23 03:50:27;;;;;;;45.63;20.93;;;6.70;99.90;;;;;;5039666;28;20418;-82
2022/01/23 03:52:53;;;;;;;44.00;22.60;;;6.80;99.90;;;;;;5032824;28;20446;-81
2022/01/23 03:55:19;;;;;;;49.67;25.40;;;6.80;99.90;;;;;;5048008;28;20191;-80
2022/01/23 03:57:45;;;;;;;37.53;21.53;;;6.80;99.90;;;;;;5054412;28;20257;-81
2022/01/23 04:00:11;;;;;;;50.37;25.67;;;6.80;99.90;;;;;;5046215;28;20462;-80
2022/01/23 04:02:37;;;;;;;42.97;23.37;;;6.80;99.90;;;;;;5029372;28;20191;-82
2022/01/23 04:05:02;;;;;;;43.50;22.73;;;6.90;99.90;;;;;;5047295;28;20411;-83
2022/01/23 04:07:29;;;;;;;45.43;24.37;;;6.80;99.90;;;;;;5051496;28;20677;-82
2022/01/23 04:09:55;;;;;;;49.37;23.03;;;6.80;99.90;;;;;;5047151;28;20179;-81
2022/01/23 04:12:49;;;;;;;42.83;22.93;;;6.80;99.90;;;;;;5035889;28;20576;-83
2022/01/23 04:20:42;;;;;;;47.40;23.97;;;6.80;99.90;;;;;;5052779;28;20230;-81
2022/01/23 05:04:14;;;;;;;45.73;23.93;;;6.80;99.90;;;;;;5035953;28;20498;-81
2022/01/23 05:06:58;;;;;;;43.37;22.40;;;6.80;99.90;;;;;;5040604;28;20521;-81
2022/01/23 05:09:25;;;;;;;39.50;21.40;;;6.80;99.90;;;;;;5053060;28;20497;-82
2022/01/23 05:11:56;;;;;;;38.30;22.10;;;6.80;99.90;;;;;;5042645;28;20501;-81
2022/01/23 05:14:29;;;;;;;40.77;21.00;;;6.80;99.90;;;;;;5033701;28;20441;-81
2022/01/23 05:16:55;;;;;;;41.30;22.37;;;6.80;99.90;;;;;;5031675;28;20840;-82
2022/01/23 05:19:21;;;;;;;43.97;21.00;;;6.80;99.90;;;;;;5043998;28;20861;-81
2022/01/23 05:24:13;;;;;;;41.37;22.23;;;6.70;99.90;;;;;;5048883;28;20833;-81
2022/01/23 05:26:44;;;;;;;41.57;21.43;;;6.70;99.90;;;;;;5044138;28;20569;-82
2022/01/23 05:29:10;;;;;;;35.83;21.03;;;6.70;99.90;;;;;;5051848;28;20533;-81
2022/01/23 05:31:36;;;;;;;45.67;22.13;;;6.70;99.90;;;;;;5046652;28;20442;-81
2022/01/23 05:34:02;;;;;;;37.87;21.47;;;6.70;99.90;;;;;;5044603;28;20878;-81
2022/01/23 05:36:27;;;;;;;53.30;23.67;;;6.70;99.90;;;;;;5048828;28;20564;-81
2022/01/23 05:38:53;;;;;;;43.33;21.70;;;6.70;99.90;;;;;;5044364;28;20217;-81
2022/01/23 05:41:19;;;;;;;45.43;23.80;;;6.70;99.90;;;;;;5046482;28;20207;-81
2022/01/23 05:43:45;;;;;;;43.83;23.40;;;6.60;99.90;;;;;;5032605;28;20225;-81
2022/01/23 05:46:10;;;;;;;47.93;24.70;;;6.70;99.90;;;;;;5033165;28;20530;-81
2022/01/23 05:48:37;;;;;;;40.00;21.07;;;6.70;99.90;;;;;;5050411;28;20234;-81
2022/01/23 05:51:03;;;;;;;46.73;24.33;;;6.70;99.90;;;;;;5027609;28;20185;-81
2022/01/23 05:53:28;;;;;;;41.60;21.50;;;6.60;99.90;;;;;;5042786;28;20450;-81
2022/01/23 05:55:55;;;;;;;36.87;22.17;;;6.60;99.90;;;;;;5025329;28;20426;-81
2022/01/23 05:58:21;;;;;;;42.27;21.20;;;6.60;99.90;;;;;;5031535;28;20183;-81
2022/01/23 06:00:46;;;;;;;44.87;26.27;;;6.70;99.90;;;;;;5013934;28;20481;-81
2022/01/23 06:03:12;;;;;;;44.00;22.83;;;6.70;99.90;;;;;;5031727;28;20188;-81
2022/01/23 06:05:37;;;;;;;38.97;22.37;;;6.70;99.90;;;;;;5033073;28;20187;-81
2022/01/23 06:08:03;;;;;;;45.90;24.30;;;6.70;99.90;;;;;;5051955;28;20697;-81
2022/01/23 06:10:36;;;;;;;43.10;24.50;;;6.70;99.90;;;;;;5044891;28;20186;-81
2022/01/23 06:13:02;;;;;;;40.57;21.60;;;6.80;99.90;;;;;;5040345;28;20425;-81
2022/01/23 06:15:28;;;;;;;40.60;22.50;;;6.80;99.90;;;;;;5039938;28;20466;-81
2022/01/23 06:17:55;;;;;;;42.00;23.10;;;6.80;99.90;;;;;;5051199;28;20904;-80
2022/01/23 06:20:21;;;;;;;41.83;22.03;;;6.70;99.90;;;;;;5040338;28;20361;-81
2022/01/23 06:22:47;;;;;;;40.90;22.57;;;6.80;99.90;;;;;;5031728;28;20419;-81
2022/01/23 06:25:15;;;;;;;39.07;22.47;;;6.80;99.90;;;;;;5031672;28;20181;-81
2022/01/23 06:27:41;;;;;;;43.37;23.40;;;6.80;99.90;;;;;;5045057;28;20462;-80
2022/01/23 06:30:08;;;;;;;38.83;23.03;;;6.80;99.90;;;;;;5051249;28;20445;-81
2022/01/23 06:32:34;;;;;;;38.97;22.60;;;6.80;99.90;;;;;;5051055;28;20438;-81
2022/01/23 06:34:59;;;;;;;40.90;23.23;;;6.80;99.90;;;;;;5044001;28;20419;-81
2022/01/23 06:37:25;;;;;;;43.10;22.37;;;6.80;99.90;;;;;;5039667;28;20574;-81
2022/01/23 06:39:51;;;;;;;42.13;24.57;;;6.80;99.90;;;;;;5046674;28;20270;-82
2022/01/23 06:42:16;;;;;;;42.63;24.40;;;6.80;99.90;;;;;;5031791;28;20192;-82
2022/01/23 06:44:42;;;;;;;39.90;23.10;;;6.80;99.90;;;;;;5036219;28;20190;-81
2022/01/23 06:47:07;;;;;;;40.43;22.73;;;6.80;99.90;;;;;;5097437;22;20276;-78
2022/01/23 06:49:33;;;;;;;40.37;21.50;;;6.80;99.90;;;;;;5072346;28;20187;-79
2022/01/23 06:51:58;;;;;;;37.67;20.50;;;6.80;99.90;;;;;;5067476;28;20410;-79
2022/01/23 06:54:24;;;;;;;39.70;23.47;;;6.80;99.90;;;;;;5074936;28;20190;-79
2022/01/23 06:56:49;;;;;;;42.03;23.27;;;6.80;99.90;;;;;;5073562;28;20199;-80
2022/01/23 06:59:15;;;;;;;38.70;19.63;;;6.80;99.90;;;;;;5049751;28;20187;-80
2022/01/23 07:01:41;;;;;;;48.53;23.93;;;6.80;99.90;;;;;;5061679;28;20204;-83
2022/01/23 07:04:06;;;;;;;45.03;22.43;;;6.80;99.90;;;;;;5073250;28;20194;-81
2022/01/23 07:06:32;;;;;;;38.50;21.47;;;6.80;99.90;;;;;;5067484;28;20212;-82
2022/01/23 07:08:58;;;;;;;45.43;22.93;;;6.80;99.90;;;;;;5067251;28;20631;-81
2022/01/23 07:11:23;;;;;;;39.00;20.00;;;6.80;99.90;;;;;;5073609;28;20639;-81
2022/01/23 07:13:49;;;;;;;38.80;20.30;;;6.80;99.90;;;;;;5048857;28;20227;-81
2022/01/23 07:16:14;;;;;;;37.00;20.80;;;6.80;99.90;;;;;;5072798;28;20265;-81
2022/01/23 07:18:40;;;;;;;38.40;21.27;;;6.80;99.90;;;;;;5055159;28;20219;-80
2022/01/23 07:21:05;;;;;;;31.53;19.77;;;6.80;99.90;;;;;;5064958;28;20203;-80
2022/01/23 07:23:31;;;;;;;42.20;19.07;;;6.80;99.90;;;;;;5051314;28;20180;-80
2022/01/23 07:25:57;;;;;;;41.77;22.57;;;6.90;99.90;;;;;;5048241;28;20196;-80
2022/01/23 07:28:31;;;;;;;38.70;19.20;;;6.90;99.90;;;;;;5062101;28;20210;-80
2022/01/23 07:31:00;;;;;;;32.53;18.00;;;6.90;99.90;;;;;;5067551;28;20705;-81
2022/01/23 07:33:25;;;;;;;36.97;19.50;;;6.90;99.90;;;;;;5067492;28;20513;-80
2022/01/23 07:35:51;;;;;;;37.27;20.20;;;6.90;99.90;;;;;;5065668;28;20531;-81
2022/01/23 07:38:17;;;;;;;39.63;20.50;;;6.90;99.90;;;;;;5066436;28;20203;-80
2022/01/23 07:40:48;;;;;;;33.13;21.07;;;6.90;99.90;;;;;;5066726;28;20638;-80
2022/01/23 07:43:14;;;;;;;37.77;19.10;;;6.90;99.90;;;;;;5056625;28;20795;-79
2022/01/23 07:45:39;;;;;;;38.40;20.87;;;6.90;99.90;;;;;;5069741;28;20421;-80
2022/01/23 07:48:06;;;;;;;34.90;19.60;;;6.90;99.90;;;;;;5060452;28;20215;-80
2022/01/23 07:50:32;;;;;;;40.70;21.70;;;7.00;99.90;;;;;;5073645;28;20180;-80
2022/01/23 07:52:57;;;;;;;33.20;20.50;;;6.90;99.90;;;;;;5073743;28;20425;-81
2022/01/23 07:55:23;;;;;;;38.87;20.63;;;6.90;99.90;;;;;;5073789;28;20491;-80
2022/01/23 07:57:52;;;;;;;38.90;18.63;;;6.90;99.90;;;;;;5070781;28;20557;-80
2022/01/23 08:00:18;;;;;;;38.30;20.00;;;6.90;99.90;;;;;;5067245;28;20195;-80
2022/01/23 08:02:43;;;;;;;32.07;17.40;;;6.90;99.90;;;;;;5060517;28;20445;-81
2022/01/23 08:05:10;;;;;;;34.13;19.40;;;6.90;99.90;;;;;;5054501;28;20513;-80
2022/01/23 08:07:36;;;;;;;34.20;18.47;;;6.90;99.90;;;;;;5062570;28;20198;-80
2022/01/23 08:10:07;;;;;;;36.40;21.40;;;6.90;99.90;;;;;;5072284;28;20419;-82
2022/01/23 08:12:33;;;;;;;35.90;20.23;;;6.90;99.90;;;;;;5049851;28;20433;-79
2022/01/23 08:15:00;;;;;;;36.90;20.80;;;6.90;99.90;;;;;;5067360;28;20429;-79
2022/01/23 08:17:26;;;;;;;35.67;19.83;;;6.90;99.90;;;;;;5057725;28;20438;-80
2022/01/23 08:19:56;;;;;;;31.77;18.80;;;6.90;99.90;;;;;;5051355;28;20460;-81
2022/01/23 08:22:23;;;;;;;37.00;20.33;;;7.00;99.90;;;;;;5050590;28;20471;-79
2022/01/23 08:24:50;;;;;;;37.67;21.23;;;6.90;99.90;;;;;;5072624;28;20776;-80
2022/01/23 08:27:16;;;;;;;32.17;19.67;;;7.00;99.90;;;;;;5074167;28;20457;-79
2022/01/23 08:29:42;;;;;;;45.00;22.00;;;7.00;99.90;;;;;;5051801;28;20437;-80
2022/01/23 08:32:09;;;;;;;36.87;19.50;;;7.00;99.90;;;;;;5067322;28;20948;-80
2022/01/23 08:34:35;;;;;;;37.40;20.97;;;7.00;99.90;;;;;;5076496;28;20704;-79
2022/01/23 08:37:02;;;;;;;34.97;20.90;;;7.10;99.90;;;;;;5047965;28;20859;-78
2022/01/23 08:39:30;;;;;;;32.07;19.30;;;7.10;99.90;;;;;;5061928;28;20442;-78
2022/01/23 08:41:56;;;;;;;38.83;20.47;;;7.20;99.90;;;;;;5061923;28;20532;-79
2022/01/23 08:44:24;;;;;;;38.40;20.60;;;7.20;99.90;;;;;;5072814;28;20429;-78
2022/01/23 08:46:50;;;;;;;38.07;21.57;;;7.20;99.90;;;;;;5067740;28;20571;-78
2022/01/23 08:49:19;;;;;;;34.10;19.20;;;7.20;99.90;;;;;;5074088;28;20480;-78
2022/01/23 08:51:46;;;;;;;39.37;19.90;;;7.20;99.90;;;;;;5064079;28;20452;-80
2022/01/23 08:54:12;;;;;;;37.53;19.60;;;7.30;99.90;;;;;;5064312;28;20791;-79
2022/01/23 08:56:38;;;;;;;36.67;21.00;;;7.30;99.90;;;;;;5054864;28;20466;-79
2022/01/23 08:59:04;;;;;;;38.90;20.97;;;7.30;99.90;;;;;;5062212;28;20183;-78
2022/01/23 09:01:30;;;;;;;43.67;23.33;;;7.30;99.90;;;;;;5060126;28;20465;-79
2022/01/23 09:03:56;;;;;;;34.70;20.07;;;7.30;99.90;;;;;;5047696;28;20174;-80
2022/01/23 09:06:22;;;;;;;42.33;21.70;;;7.30;99.90;;;;;;5063210;28;20445;-80
2022/01/23 09:08:48;;;;;;;39.40;22.23;;;7.30;99.90;;;;;;5044836;28;20218;-80
2022/01/23 09:11:24;;;;;;;40.90;21.10;;;7.30;99.90;;;;;;5060962;28;20473;-80
2022/01/23 09:16:16;;;;;;;38.73;20.37;;;7.40;99.90;;;;;;5065662;28;20437;-79
2022/01/23 09:18:41;;;;;;;36.87;21.37;;;7.30;99.90;;;;;;5066797;28;20445;-80
2022/01/23 09:21:07;;;;;;;35.93;21.00;;;7.40;99.90;;;;;;5044209;28;20465;-79
2022/01/23 09:23:34;;;;;;;42.13;20.80;;;7.40;99.90;;;;;;5048479;28;20182;-79
2022/01/23 09:26:06;;;;;;;36.83;21.27;;;7.40;99.90;;;;;;5071604;28;20436;-78
2022/01/23 09:28:33;;;;;;;41.67;20.40;;;7.40;99.90;;;;;;5064847;28;20457;-78
2022/01/23 09:31:00;;;;;;;36.23;20.70;;;7.40;99.90;;;;;;5052157;28;20441;-80
2022/01/23 09:33:26;;;;;;;35.17;20.43;;;7.50;99.90;;;;;;5063882;28;20421;-79
2022/01/23 09:35:52;;;;;;;34.70;21.37;;;7.50;99.90;;;;;;5052111;28;20809;-79
2022/01/23 09:38:18;;;;;;;35.93;20.47;;;7.50;99.90;;;;;;5057684;28;20461;-80
2022/01/23 09:40:45;;;;;;;43.30;22.17;;;7.50;99.90;;;;;;5063788;28;20293;-80
2022/01/23 09:43:19;;;;;;;38.73;21.17;;;7.50;99.90;;;;;;5062887;28;20237;-79
2022/01/23 09:45:48;;;;;;;37.00;22.17;;;7.60;99.90;;;;;;5066050;28;20422;-81
2022/01/23 09:48:15;;;;;;;39.53;20.90;;;7.60;99.90;;;;;;5069422;28;20457;-79
2022/01/23 09:50:44;;;;;;;37.33;21.20;;;7.60;99.90;;;;;;5065187;28;20453;-80
2022/01/23 09:53:11;;;;;;;37.40;19.43;;;7.60;99.90;;;;;;5069341;28;20433;-80
2022/01/23 09:55:39;;;;;;;33.33;20.40;;;7.70;99.90;;;;;;5055619;28;20418;-81
2022/01/23 09:58:05;;;;;;;33.07;21.40;;;7.70;99.90;;;;;;5053811;28;20453;-80
2022/01/23 10:00:33;;;;;;;41.90;21.17;;;7.70;99.90;;;;;;5070657;28;20564;-81
2022/01/23 10:02:59;;;;;;;36.30;19.50;;;7.60;99.90;;;;;;5073360;28;20486;-81
2022/01/23 10:05:26;;;;;;;34.07;19.90;;;7.60;99.90;;;;;;5069292;28;20798;-80
2022/01/23 10:07:53;;;;;;;37.70;22.33;;;7.60;99.90;;;;;;5051751;28;20453;-82
2022/01/23 10:10:24;;;;;;;36.57;20.30;;;7.60;99.90;;;;;;5069936;28;20441;-81
2022/01/23 10:12:54;;;;;;;38.73;22.13;;;7.70;99.90;;;;;;5060648;28;20793;-81
2022/01/23 10:15:20;;;;;;;42.10;21.67;;;7.70;99.90;;;;;;5052739;28;20464;-80
2022/01/23 10:17:46;;;;;;;39.37;19.40;;;7.80;99.90;;;;;;5062567;28;20955;-82
2022/01/23 10:20:13;;;;;;;39.90;21.40;;;7.80;99.90;;;;;;5068830;28;20472;-81
2022/01/23 10:22:43;;;;;;;40.10;21.53;;;7.80;99.90;;;;;;5060241;28;20506;-80
2022/01/23 10:25:11;;;;;;;32.10;19.87;;;7.80;99.90;;;;;;5062785;28;20442;-81
2022/01/23 10:27:56;;;;;;;36.43;19.57;;;7.90;99.90;;;;;;5058927;28;20460;-78
2022/01/23 10:30:24;;;;;;;32.00;17.73;;;7.90;99.90;;;;;;5062549;28;20532;-80
2022/01/23 10:33:20;;;;;;;36.70;18.77;;;7.90;99.90;;;;;;5052314;28;20852;-79
2022/01/23 10:35:58;;;;;;;37.00;19.93;;;8.00;99.90;;;;;;5050582;28;20480;-79
2022/01/23 10:38:28;;;;;;;33.97;20.30;;;8.00;99.90;;;;;;5053232;28;20529;-79
2022/01/23 10:49:50;;;;;;;39.77;19.77;;;8.00;99.90;;;;;;5053426;28;20459;-81
2022/01/23 10:52:34;;;;;;;35.33;19.20;;;8.10;99.90;;;;;;5052999;28;20921;-80
2022/01/23 10:55:03;;;;;;;37.13;20.93;;;8.10;99.90;;;;;;5034865;28;20430;-79
2022/01/23 10:57:41;;;;;;;37.17;20.40;;;8.10;99.90;;;;;;5034380;28;21067;-79
2022/01/23 11:00:09;;;;;;;42.27;22.40;;;8.20;99.90;;;;;;5057112;28;20496;-79
2022/01/23 11:02:41;;;;;;;43.27;21.00;;;8.20;99.90;;;;;;5067223;28;20433;-80
2022/01/23 11:05:09;;;;;;;40.77;22.47;;;8.20;99.90;;;;;;5051587;28;20593;-79
2022/01/23 11:07:38;;;;;;;45.60;21.87;;;8.20;99.90;;;;;;5049958;28;20440;-79
2022/01/23 11:10:07;;;;;;;35.10;18.30;;;8.20;99.90;;;;;;5072817;28;20516;-81
2022/01/23 11:17:22;;;;;;;37.27;20.50;;;8.30;99.90;;;;;;5047949;28;20506;-79
2022/01/23 11:18:38;;;;;;;35.63;21.97;;;8.40;99.90;;;;;;5071259;28;20525;-79
2022/01/23 11:21:15;;;;;;;39.43;21.23;;;8.40;99.90;;;;;;5045614;28;20551;-80
2022/01/23 11:23:41;;;;;;;35.70;20.57;;;8.50;99.90;;;;;;5075347;28;20472;-79
2022/01/23 11:26:10;;;;;;;36.00;19.93;;;8.50;99.90;;;;;;5062394;28;20433;-80
2022/01/23 11:28:45;;;;;;;41.37;21.63;;;8.50;99.90;;;;;;5051856;28;20454;-79
2022/01/23 11:31:17;;;;;;;38.20;20.87;;;8.50;99.90;;;;;;5063694;28;21036;-79
2022/01/23 11:33:42;;;;;;;37.57;21.70;;;8.60;99.90;;;;;;5072626;28;20445;-80
2022/01/23 11:36:08;;;;;;;36.40;19.60;;;8.60;99.90;;;;;;5068813;28;20433;-79
2022/01/23 11:38:34;;;;;;;36.90;21.33;;;8.60;99.90;;;;;;5063147;28;20264;-79
2022/01/23 11:55:35;;;;;;;36.20;20.10;;;8.60;99.90;;;;;;5069005;28;20472;-80
2022/01/23 11:58:02;;;;;;;36.40;20.77;;;8.60;99.90;;;;;;5077183;28;20460;-81
2022/01/23 12:00:31;;;;;;;35.47;21.17;;;8.70;99.90;;;;;;5067778;28;20468;-81
2022/01/23 12:03:17;;;;;;;34.70;20.60;;;8.70;99.90;;;;;;5062054;28;20516;-80
2022/01/23 12:06:12;;;;;;;37.70;19.97;;;8.70;99.90;;;;;;5052998;28;20438;-81
2022/01/23 12:08:38;;;;;;;34.20;19.80;;;8.70;99.90;;;;;;5057557;28;20431;-80
2022/01/23 12:17:01;;;;;;;35.60;20.40;;;8.80;99.90;;;;;;5071558;28;20475;-82
2022/01/23 12:19:29;;;;;;;38.97;22.13;;;8.80;99.90;;;;;;5047160;28;20465;-80
2022/01/23 12:21:58;;;;;;;40.27;21.83;;;8.90;99.90;;;;;;5062379;28;20548;-81
2022/01/23 12:24:25;;;;;;;33.63;19.00;;;8.90;99.90;;;;;;5045549;28;20438;-79
2022/01/23 12:27:12;;;;;;;41.97;22.30;;;8.90;99.90;;;;;;5052724;28;20453;-79
2022/01/23 12:29:38;;;;;;;35.13;21.27;;;8.80;99.90;;;;;;5069192;28;20417;-80
2022/01/23 12:32:17;;;;;;;36.87;21.87;;;8.90;99.90;;;;;;5074500;28;20872;-80
2022/01/23 12:34:48;;;;;;;35.93;19.00;;;8.90;99.90;;;;;;5062733;28;20179;-80
2022/01/23 12:37:13;;;;;;;36.70;20.60;;;9.00;99.90;;;;;;5065735;28;20433;-80
2022/01/23 12:39:39;;;;;;;30.70;21.33;;;8.90;99.90;;;;;;5054925;28;20531;-79
2022/01/23 12:42:05;;;;;;;39.47;20.50;;;9.00;99.90;;;;;;5049478;28;20681;-79
2022/01/23 12:44:39;;;;;;;34.97;19.70;;;9.00;99.90;;;;;;5068061;28;20257;-79
2022/01/23 12:47:18;;;;;;;33.57;20.93;;;9.00;99.90;;;;;;5074301;28;20581;-79
2022/01/23 12:49:52;;;;;;;36.23;19.27;;;9.00;99.90;;;;;;5068410;28;20450;-80
2022/01/23 12:52:20;;;;;;;41.67;21.70;;;9.00;99.90;;;;;;5065237;28;20775;-80
2022/01/23 12:54:50;;;;;;;36.67;20.47;;;9.00;99.90;;;;;;5068653;28;20442;-80
2022/01/23 12:57:40;;;;;;;41.20;21.90;;;9.00;99.90;;;;;;5070177;28;20461;-80
2022/01/23 13:00:16;;;;;;;33.23;19.00;;;9.00;99.90;;;;;;5047714;28;20876;-81
2022/01/23 13:02:49;;;;;;;35.37;21.57;;;9.00;99.90;;;;;;5067074;28;20518;-79
2022/01/23 13:05:16;;;;;;;34.03;19.30;;;9.00;99.90;;;;;;5065999;28;20494;-78
2022/01/23 13:13:34;;;;;;;29.20;18.87;;;9.10;99.90;;;;;;5024516;28;20454;-79
2022/01/23 13:18:52;;;;;;;36.30;21.77;;;9.10;99.90;;;;;;5086961;22;20901;-79
2022/01/23 13:32:29;;;;;;;39.27;22.10;;;9.00;99.90;;;;;;5042903;28;20418;-79
2022/01/23 13:35:01;;;;;;;35.80;21.00;;;9.00;99.90;;;;;;5043853;28;20839;-79
2022/01/23 13:37:31;;;;;;;41.10;21.70;;;9.00;99.90;;;;;;5041082;28;20974;-79
2022/01/23 13:40:08;;;;;;;37.20;21.07;;;9.00;99.90;;;;;;5052036;28;20453;-79
2022/01/23 13:54:03;;;;;;;38.70;19.97;;;9.00;99.90;;;;;;5040050;28;20505;-79
2022/01/23 14:04:28;;;;;;;34.40;18.50;;;9.00;99.90;;;;;;5049709;28;20511;-82
2022/01/23 14:06:54;;;;;;;31.60;17.93;;;8.90;99.90;;;;;;5045657;28;20453;-79
2022/01/23 14:09:21;;;;;;;30.67;19.00;;;8.90;99.90;;;;;;5039918;28;20469;-80
2022/01/23 14:11:48;;;;;;;31.20;16.80;;;8.90;99.90;;;;;;5037336;28;20183;-80
2022/01/23 14:14:17;;;;;;;33.17;18.63;;;8.90;99.90;;;;;;5051847;28;21100;-79
2022/01/23 14:16:44;;;;;;;32.03;17.20;;;8.80;99.90;;;;;;5030370;28;20938;-79
2022/01/23 14:19:18;;;;;;;37.50;17.10;;;8.80;99.90;;;;;;5036480;28;20996;-80
2022/01/23 14:21:48;;;;;;;25.13;16.73;;;8.80;99.90;;;;;;5051438;28;20861;-79
2022/01/23 14:24:20;;;;;;;29.73;16.60;;;8.80;99.90;;;;;;5040051;28;20808;-80
2022/01/23 14:27:06;;;;;;;26.80;16.67;;;8.80;99.90;;;;;;5051596;28;20771;-80
2022/01/23 14:29:34;;;;;;;34.83;19.50;;;8.90;99.90;;;;;;5049273;28;20495;-79
2022/01/23 14:32:17;;;;;;;26.97;15.90;;;8.80;99.90;;;;;;5033111;28;20435;-80
2022/01/23 14:34:43;;;;;;;29.83;16.70;;;8.80;99.90;;;;;;5030987;28;21015;-79
2022/01/23 14:37:09;;;;;;;29.77;15.50;;;8.90;99.90;;;;;;5036897;28;20497;-81
2022/01/23 14:39:36;;;;;;;29.53;16.40;;;8.90;99.90;;;;;;5055903;28;20176;-80
2022/01/23 14:42:18;;;;;;;26.17;15.30;;;8.90;99.90;;;;;;5037934;28;20453;-80
2022/01/23 14:44:44;;;;;;;25.83;14.30;;;8.90;99.90;;;;;;5038092;28;20410;-80
2022/01/23 14:47:11;;;;;;;24.83;15.60;;;8.90;99.90;;;;;;5037347;28;20417;-81
2022/01/23 14:49:38;;;;;;;35.80;17.10;;;8.90;99.90;;;;;;5037936;28;20472;-81
2022/01/23 14:52:09;;;;;;;26.60;15.80;;;8.90;99.90;;;;;;5055894;28;20425;-81
2022/01/23 14:54:35;;;;;;;25.17;15.50;;;8.90;99.90;;;;;;5055706;28;20425;-81
2022/01/23 14:57:03;;;;;;;26.47;14.57;;;8.80;99.90;;;;;;5055440;28;20410;-81
2022/01/23 14:59:33;;;;;;;29.73;14.60;;;8.80;99.90;;;;;;5066111;22;20509;-80
2022/01/23 15:01:59;;;;;;;31.63;17.10;;;8.70;99.90;;;;;;5056698;28;20461;-80
2022/01/23 15:04:25;;;;;;;27.23;15.30;;;8.70;99.90;;;;;;5057660;28;20418;-80
2022/01/23 15:06:52;;;;;;;30.27;16.43;;;8.70;99.90;;;;;;5056514;28;20444;-80
2022/01/23 15:09:19;;;;;;;31.07;15.67;;;8.70;99.90;;;;;;5056802;28;20863;-80
2022/01/23 15:11:46;;;;;;;26.97;17.30;;;8.70;99.90;;;;;;5056156;28;20792;-79
2022/01/23 15:14:13;;;;;;;31.00;17.00;;;8.70;99.90;;;;;;5056070;28;20418;-80
2022/01/23 15:16:40;;;;;;;27.47;17.97;;;8.60;99.90;;;;;;5056579;28;20471;-80
2022/01/23 15:19:07;;;;;;;27.73;16.90;;;8.60;99.90;;;;;;5055763;28;20475;-80
2022/01/23 15:21:33;;;;;;;24.83;14.87;;;8.60;99.90;;;;;;5056384;28;20516;-80
2022/01/23 15:23:59;;;;;;;24.97;16.13;;;8.60;99.90;;;;;;5057684;28;20498;-80
2022/01/23 15:26:31;;;;;;;28.87;16.60;;;8.60;99.90;;;;;;5055991;28;20472;-80
2022/01/23 15:28:58;;;;;;;31.10;18.43;;;8.50;99.90;;;;;;5056062;28;20221;-80
2022/01/23 15:31:24;;;;;;;28.13;15.93;;;8.50;99.90;;;;;;5066139;28;20418;-81
2022/01/23 15:33:51;;;;;;;26.90;16.47;;;8.40;99.90;;;;;;5073498;28;20521;-80
2022/01/23 15:36:17;;;;;;;29.30;17.30;;;8.40;99.90;;;;;;5072363;28;20430;-80
2022/01/23 15:38:44;;;;;;;33.13;18.17;;;8.40;99.90;;;;;;5070082;28;20422;-80
2022/01/23 15:41:11;;;;;;;29.40;19.13;;;8.40;99.90;;;;;;5061131;28;20465;-80
2022/01/23 15:43:37;;;;;;;28.13;16.00;;;8.30;99.90;;;;;;5061682;28;20521;-78
2022/01/23 15:46:06;;;;;;;29.63;18.57;;;8.30;99.90;;;;;;5063382;28;20468;-80
2022/01/23 15:48:33;;;;;;;30.93;16.03;;;8.30;99.90;;;;;;5057658;28;20490;-79
2022/01/23 15:51:02;;;;;;;31.60;16.03;;;8.20;99.90;;;;;;5057754;28;20525;-80
2022/01/23 15:53:28;;;;;;;30.77;18.50;;;8.20;99.90;;;;;;5059325;28;21014;-79
2022/01/23 15:55:54;;;;;;;32.53;19.73;;;8.20;99.90;;;;;;5051859;28;20449;-79
2022/01/23 15:58:20;;;;;;;35.00;19.80;;;8.10;99.90;;;;;;5052955;28;20488;-79
2022/01/23 16:00:46;;;;;;;36.73;18.37;;;8.10;99.90;;;;;;5049485;28;20495;-80
2022/01/23 16:03:12;;;;;;;35.67;19.27;;;8.10;99.90;;;;;;5064251;28;20301;-78
2022/01/23 16:05:38;;;;;;;31.30;20.27;;;8.10;99.90;;;;;;5068767;28;20183;-79
2022/01/23 16:08:04;;;;;;;32.60;19.97;;;8.10;99.90;;;;;;5075739;28;20474;-80
2022/01/23 16:10:30;;;;;;;31.73;19.20;;;8.00;99.90;;;;;;5076778;28;21003;-78
2022/01/23 16:12:55;;;;;;;30.37;17.97;;;8.00;99.90;;;;;;5075421;28;20445;-77
2022/01/23 16:15:22;;;;;;;29.70;18.70;;;8.00;99.90;;;;;;5076459;28;20441;-79
2022/01/23 16:17:49;;;;;;;33.37;18.43;;;8.00;99.90;;;;;;5077318;28;20877;-79
2022/01/23 16:20:16;;;;;;;32.80;18.80;;;8.00;99.90;;;;;;5077464;28;20437;-79